createdAt,value
2023-02-24T00:00:30.548Z,10.35
2023-02-24T00:02:57.044Z,9.52
2023-02-24T00:05:23.748Z,9.27
2023-02-24T00:07:50.216Z,9.70
2023-02-24T00:10:21.395Z,10.38
2023-02-24T00:12:47.927Z,9.77
2023-02-24T00:15:15.242Z,10.98
2023-02-24T00:17:45.368Z,11.07
2023-02-24T00:20:13.515Z,11.10
2023-02-24T00:22:40.492Z,11.52
2023-02-24T00:25:07.898Z,12.60
2023-02-24T00:27:35.150Z,10.10
2023-02-24T00:30:05.564Z,11.38
2023-02-24T00:32:33.115Z,10.70
2023-02-24T00:34:59.654Z,10.18
2023-02-24T00:37:26.125Z,11.00
2023-02-24T00:39:58.503Z,10.60
2023-02-24T00:42:25.471Z,10.23
2023-02-24T00:44:54.094Z,9.82
2023-02-24T00:47:22.495Z,8.18
2023-02-24T00:49:56.615Z,7.82
2023-02-24T00:52:27.815Z,7.30
2023-02-24T00:54:54.240Z,7.45
2023-02-24T00:57:21.755Z,8.65
2023-02-24T00:59:48.548Z,8.70
2023-02-24T01:02:15.848Z,11.82
2023-02-24T01:04:44.396Z,11.60
2023-02-24T01:07:11.792Z,12.23
2023-02-24T01:09:41.458Z,10.88
2023-02-24T01:12:28.476Z,10.35
2023-02-24T01:14:55.330Z,10.43
2023-02-24T01:17:23.091Z,10.57
2023-02-24T01:19:50.245Z,8.27
2023-02-24T01:22:19.774Z,7.20
2023-02-24T01:24:47.123Z,6.25
2023-02-24T01:27:14.914Z,5.40
2023-02-24T01:29:50.445Z,6.65
2023-02-24T01:32:20.655Z,7.47
2023-02-24T01:34:50.874Z,8.30
2023-02-24T01:37:19.223Z,9.48
2023-02-24T01:39:46.239Z,8.77
2023-02-24T01:42:16.918Z,7.28
2023-02-24T01:44:43.865Z,7.72
2023-02-24T01:47:11.857Z,7.72
2023-02-24T01:49:42.384Z,8.90
2023-02-24T01:52:13.586Z,9.48
2023-02-24T01:54:46.492Z,8.00
2023-02-24T01:57:19.737Z,9.25
2023-02-24T01:59:49.131Z,6.95
2023-02-24T02:02:16.636Z,5.93
2023-02-24T02:05:05.715Z,7.88
2023-02-24T02:07:32.970Z,7.95
2023-02-24T02:10:03.958Z,7.30
2023-02-24T02:12:37.175Z,7.45
2023-02-24T02:15:06.139Z,6.70
2023-02-24T02:17:58.036Z,10.00
2023-02-24T02:20:55.787Z,10.27
2023-02-24T02:23:45.811Z,11.73
2023-02-24T02:26:47.308Z,9.07
2023-02-24T02:29:30.763Z,10.63
2023-02-24T02:32:25.403Z,9.73
2023-02-24T02:35:11.352Z,9.75
2023-02-24T02:37:50.946Z,12.40
2023-02-24T02:40:47.418Z,11.07
2023-02-24T02:43:25.979Z,11.60
2023-02-24T02:45:59.321Z,13.45
2023-02-24T02:48:38.018Z,13.02
2023-02-24T02:51:11.228Z,11.57
2023-02-24T02:53:56.183Z,14.13
2023-02-24T02:56:32.025Z,13.07
2023-02-24T02:59:00.900Z,13.65
2023-02-24T03:01:34.162Z,12.80
2023-02-24T03:04:05.775Z,12.18
2023-02-24T03:06:40.096Z,11.70
2023-02-24T03:09:17.931Z,13.02
2023-02-24T03:11:53.761Z,14.18
2023-02-24T03:14:26.134Z,12.88
2023-02-24T03:16:55.854Z,11.93
2023-02-24T03:19:31.116Z,13.13
2023-02-24T03:22:15.489Z,14.30
2023-02-24T03:24:44.271Z,15.50
2023-02-24T03:27:19.997Z,14.13
2023-02-24T03:30:01.960Z,13.85
2023-02-24T03:32:55.852Z,12.15
2023-02-24T03:35:36.867Z,12.80
2023-02-24T03:38:06.347Z,14.07
2023-02-24T03:40:34.519Z,13.27
2023-02-24T03:43:07.549Z,16.00
2023-02-24T03:45:41.733Z,15.65
2023-02-24T03:48:10.028Z,13.52
2023-02-24T03:50:38.776Z,14.27
2023-02-24T03:53:24.059Z,14.27
2023-02-24T03:56:04.124Z,13.38
2023-02-24T03:58:55.208Z,13.63
2023-02-24T04:01:57.965Z,14.77
2023-02-24T04:04:34.780Z,14.43
2023-02-24T04:07:05.203Z,14.57
2023-02-24T04:09:53.881Z,11.63
2023-02-24T04:12:42.733Z,12.65
2023-02-24T04:15:19.007Z,12.27
2023-02-24T04:17:50.432Z,12.18
2023-02-24T04:20:24.952Z,13.18
2023-02-24T04:22:57.018Z,14.15
2023-02-24T04:25:25.639Z,14.10
2023-02-24T04:27:59.043Z,14.13
2023-02-24T04:30:30.088Z,12.85
2023-02-24T04:32:56.878Z,14.68
2023-02-24T04:35:26.753Z,13.23
2023-02-24T04:37:55.100Z,14.20
2023-02-24T04:40:25.264Z,13.18
2023-02-24T04:42:53.600Z,12.73
2023-02-24T04:45:25.738Z,13.63
2023-02-24T04:48:01.046Z,12.70
2023-02-24T04:50:33.767Z,13.02
2023-02-24T04:53:12.677Z,15.60
2023-02-24T04:55:49.904Z,14.20
2023-02-24T04:58:21.227Z,14.35
2023-02-24T05:00:52.609Z,14.90
2023-02-24T05:03:21.584Z,14.18
2023-02-24T05:05:56.971Z,16.83
2023-02-24T05:08:24.574Z,14.05
2023-02-24T05:10:51.903Z,14.30
2023-02-24T05:13:27.992Z,13.65
2023-02-24T05:15:56.649Z,13.43
2023-02-24T05:18:26.332Z,15.18
2023-02-24T05:21:24.429Z,13.77
2023-02-24T05:23:53.165Z,15.35
2023-02-24T05:26:21.267Z,13.10
2023-02-24T05:28:52.205Z,12.98
2023-02-24T05:31:23.857Z,11.68
2023-02-24T05:33:54.666Z,13.30
2023-02-24T05:36:22.629Z,14.40
2023-02-24T05:38:56.579Z,13.05
2023-02-24T05:41:38.812Z,13.00
2023-02-24T05:44:14.206Z,13.07
2023-02-24T05:46:45.177Z,13.70
2023-02-24T05:49:23.950Z,11.55
2023-02-24T05:51:55.486Z,13.90
2023-02-24T05:54:31.008Z,15.32
2023-02-24T05:57:06.914Z,14.00
2023-02-24T05:59:35.544Z,13.55
2023-02-24T06:02:09.787Z,14.88
2023-02-24T06:04:41.088Z,15.73
2023-02-24T06:07:19.098Z,15.10
2023-02-24T06:09:49.933Z,14.80
2023-02-24T06:12:18.197Z,16.55
2023-02-24T06:14:45.146Z,15.07
2023-02-24T06:17:11.716Z,14.85
2023-02-24T06:19:39.304Z,13.95
2023-02-24T06:22:10.820Z,13.95
2023-02-24T06:24:37.735Z,13.10
2023-02-24T06:27:17.196Z,16.40
2023-02-24T06:29:50.148Z,15.10
2023-02-24T06:32:26.132Z,15.95
2023-02-24T06:34:54.385Z,15.15
2023-02-24T06:37:23.045Z,16.77
2023-02-24T06:39:49.958Z,15.40
2023-02-24T06:42:16.588Z,15.80
2023-02-24T06:44:43.113Z,15.02
2023-02-24T06:47:13.217Z,16.27
2023-02-24T06:49:45.496Z,16.75
2023-02-24T06:52:18.531Z,15.43
2023-02-24T06:54:47.887Z,15.40
2023-02-24T06:57:16.822Z,13.18
2023-02-24T06:59:43.385Z,14.32
2023-02-24T07:02:10.934Z,14.32
2023-02-24T07:04:43.801Z,14.63
2023-02-24T07:07:10.956Z,13.65
2023-02-24T07:09:41.708Z,14.43
2023-02-24T07:12:08.250Z,14.93
2023-02-24T07:14:36.978Z,15.30
2023-02-24T07:17:05.874Z,14.95
2023-02-24T07:19:32.767Z,16.33
2023-02-24T07:22:04.387Z,14.63
2023-02-24T07:24:33.770Z,14.20
2023-02-24T07:27:05.051Z,16.05
2023-02-24T07:29:33.155Z,15.48
2023-02-24T07:32:06.064Z,16.10
2023-02-24T07:34:33.793Z,15.48
2023-02-24T07:37:06.820Z,15.88
2023-02-24T07:39:34.703Z,15.82
2023-02-24T07:42:01.171Z,17.33
2023-02-24T07:44:29.407Z,15.48
2023-02-24T07:46:59.118Z,15.65
2023-02-24T07:49:27.954Z,15.68
2023-02-24T07:51:57.732Z,17.05
2023-02-24T07:54:27.253Z,16.48
2023-02-24T07:56:57.063Z,16.92
2023-02-24T07:59:33.903Z,15.48
2023-02-24T08:02:05.001Z,16.70
2023-02-24T08:04:39.738Z,15.35
2023-02-24T08:07:13.018Z,16.80
2023-02-24T08:09:46.489Z,15.50
2023-02-24T08:12:21.609Z,15.93
2023-02-24T08:14:51.322Z,15.80
2023-02-24T08:17:24.131Z,16.02
2023-02-24T08:20:11.832Z,15.10
2023-02-24T08:22:38.985Z,17.80
2023-02-24T08:25:06.219Z,15.93
2023-02-24T08:27:39.010Z,18.25
2023-02-24T08:30:09.808Z,16.77
2023-02-24T08:32:38.647Z,17.08
2023-02-24T08:35:16.971Z,17.05
2023-02-24T08:37:49.870Z,16.88
2023-02-24T08:40:31.449Z,17.13
2023-02-24T08:43:16.071Z,16.05
2023-02-24T08:45:51.751Z,15.98
2023-02-24T08:48:26.482Z,16.65
2023-02-24T08:50:57.208Z,16.63
2023-02-24T08:53:31.432Z,16.85
2023-02-24T08:56:00.264Z,16.52
2023-02-24T08:58:27.217Z,16.52
2023-02-24T09:00:59.390Z,17.08
2023-02-24T09:03:28.110Z,16.85
2023-02-24T09:06:08.826Z,15.15
2023-02-24T09:08:39.238Z,16.08
2023-02-24T09:11:09.535Z,16.85
2023-02-24T09:13:52.383Z,15.63
2023-02-24T09:16:20.523Z,15.63
2023-02-24T09:19:07.358Z,15.00
2023-02-24T09:21:59.809Z,16.95
2023-02-24T09:24:27.325Z,15.75
2023-02-24T09:26:58.541Z,17.15
2023-02-24T09:29:49.216Z,15.70
2023-02-24T09:32:16.235Z,14.98
2023-02-24T09:34:46.201Z,14.35
2023-02-24T09:37:27.168Z,17.13
2023-02-24T09:39:54.621Z,16.40
2023-02-24T09:42:25.697Z,15.40
2023-02-24T09:45:02.690Z,15.57
2023-02-24T09:47:39.737Z,16.77
2023-02-24T09:50:51.241Z,15.93
2023-02-24T09:53:19.723Z,14.65
2023-02-24T09:56:04.471Z,15.65
2023-02-24T09:58:58.605Z,14.00
2023-02-24T10:01:42.703Z,14.38
2023-02-24T10:04:20.810Z,14.25
2023-02-24T10:06:51.373Z,14.55
2023-02-24T10:09:26.707Z,14.07
2023-02-24T10:12:04.186Z,14.13
2023-02-24T10:15:18.949Z,11.82
2023-02-24T10:17:58.061Z,13.70
2023-02-24T10:20:39.398Z,13.43
2023-02-24T10:23:29.675Z,14.13
2023-02-24T10:26:06.684Z,13.20
2023-02-24T10:28:51.931Z,11.73
2023-02-24T10:31:35.621Z,12.40
2023-02-24T10:34:09.373Z,11.70
2023-02-24T10:36:37.712Z,13.55
2023-02-24T10:39:17.043Z,11.85
2023-02-24T10:41:57.398Z,11.18
2023-02-24T10:44:36.215Z,10.57
2023-02-24T10:47:13.522Z,10.52
2023-02-24T10:49:58.179Z,9.38
2023-02-24T10:52:50.348Z,10.15
2023-02-24T10:55:53.347Z,10.25
2023-02-24T10:58:56.324Z,8.35
2023-02-24T11:01:49.764Z,10.00
2023-02-24T11:04:43.641Z,10.40
2023-02-24T11:07:24.828Z,9.68
2023-02-24T11:10:13.852Z,9.23
2023-02-24T11:13:09.700Z,9.45
2023-02-24T11:16:02.236Z,8.73
2023-02-24T11:18:31.006Z,10.10
2023-02-24T11:21:04.241Z,10.23
2023-02-24T11:23:35.073Z,9.90
2023-02-24T11:26:21.110Z,8.47
2023-02-24T11:29:23.146Z,8.63
2023-02-24T11:31:52.097Z,7.35
2023-02-24T11:34:28.941Z,8.38
2023-02-24T11:37:45.835Z,7.90
2023-02-24T11:40:18.708Z,8.50
2023-02-24T11:42:54.981Z,9.10
2023-02-24T11:45:38.167Z,8.68
2023-02-24T11:48:21.587Z,6.53
2023-02-24T11:51:03.571Z,6.75
2023-02-24T11:53:48.054Z,7.00
2023-02-24T11:56:23.765Z,7.40
2023-02-24T11:59:12.762Z,6.50
2023-02-24T12:02:18.928Z,6.75
2023-02-24T12:04:57.004Z,7.70
2023-02-24T12:07:34.945Z,7.25
2023-02-24T12:10:16.712Z,7.13
2023-02-24T12:13:08.970Z,7.13
2023-02-24T12:15:43.065Z,7.78
2023-02-24T12:18:51.189Z,7.80
2023-02-24T12:21:30.624Z,7.93
2023-02-24T12:23:58.772Z,7.57
2023-02-24T12:27:11.238Z,7.88
2023-02-24T12:30:22.862Z,7.15
2023-02-24T12:32:59.993Z,7.63
2023-02-24T12:35:41.610Z,6.97
2023-02-24T12:38:31.565Z,6.65
2023-02-24T12:41:03.671Z,7.10
2023-02-24T12:43:54.102Z,6.90
2023-02-24T12:46:34.056Z,6.82
2023-02-24T12:49:00.552Z,7.18
2023-02-24T12:51:58.253Z,7.40
2023-02-24T12:55:14.696Z,7.85
2023-02-24T12:57:56.056Z,8.45
2023-02-24T13:00:38.562Z,8.50
2023-02-24T13:03:26.601Z,8.45
2023-02-24T13:06:07.180Z,8.25
2023-02-24T13:08:51.869Z,8.23
2023-02-24T13:11:40.337Z,8.15
2023-02-24T13:14:21.190Z,7.80
2023-02-24T13:16:51.102Z,9.33
2023-02-24T13:19:27.589Z,8.63
2023-02-24T13:22:12.968Z,8.57
2023-02-24T13:24:42.382Z,9.88
2023-02-24T13:27:21.208Z,9.23
2023-02-24T13:29:51.003Z,8.85
2023-02-24T13:32:35.189Z,8.38
2023-02-24T13:35:16.738Z,8.52
2023-02-24T13:37:46.864Z,8.43
2023-02-24T13:40:19.061Z,9.27
2023-02-24T13:42:58.180Z,9.25
2023-02-24T13:45:26.505Z,9.48
2023-02-24T13:48:12.226Z,8.57
2023-02-24T13:51:17.414Z,8.45
2023-02-24T13:54:12.098Z,8.82
2023-02-24T13:57:04.492Z,9.18
2023-02-24T13:59:57.635Z,8.02
2023-02-24T14:02:29.920Z,9.15
2023-02-24T14:05:00.144Z,8.07
2023-02-24T14:07:33.779Z,10.63
2023-02-24T14:10:14.541Z,8.55
2023-02-24T14:12:44.677Z,7.68
2023-02-24T14:15:20.605Z,8.88
2023-02-24T14:17:59.781Z,8.85
2023-02-24T14:20:28.377Z,9.00
2023-02-24T14:22:58.823Z,7.38
2023-02-24T14:25:29.944Z,8.95
2023-02-24T14:27:57.338Z,7.57
2023-02-24T14:30:41.234Z,8.07
2023-02-24T14:33:25.868Z,8.05
2023-02-24T14:35:52.385Z,7.47
2023-02-24T14:38:40.064Z,8.02
2023-02-24T14:41:27.762Z,8.05
2023-02-24T14:43:56.481Z,7.05
2023-02-24T14:46:23.777Z,7.70
2023-02-24T14:48:56.143Z,6.95
2023-02-24T14:51:28.537Z,7.07
2023-02-24T14:54:07.071Z,7.70
2023-02-24T14:56:35.622Z,7.20
2023-02-24T14:59:17.120Z,7.50
2023-02-24T15:01:48.216Z,6.63
2023-02-24T15:04:34.180Z,6.00
2023-02-24T15:07:05.265Z,7.28
2023-02-24T15:09:40.797Z,6.05
2023-02-24T15:12:27.242Z,6.20
2023-02-24T15:14:59.448Z,6.38
2023-02-24T15:17:26.064Z,6.20
2023-02-24T15:19:55.540Z,6.53
2023-02-24T15:22:26.572Z,6.07
2023-02-24T15:24:56.059Z,5.00
2023-02-24T15:27:26.011Z,7.43
2023-02-24T15:30:02.144Z,5.63
2023-02-24T15:32:31.987Z,5.45
2023-02-24T15:34:58.696Z,5.50
2023-02-24T15:37:28.894Z,5.55
2023-02-24T15:40:23.840Z,6.28
2023-02-24T15:43:08.549Z,6.47
2023-02-24T15:45:39.359Z,5.68
2023-02-24T15:48:25.071Z,5.30
2023-02-24T15:50:51.628Z,5.95
2023-02-24T15:53:18.325Z,6.15
2023-02-24T15:55:45.940Z,5.68
2023-02-24T15:58:17.802Z,6.38
2023-02-24T16:00:45.432Z,6.22
2023-02-24T16:03:12.988Z,5.90
2023-02-24T16:05:39.651Z,5.80
2023-02-24T16:08:12.930Z,5.68
2023-02-24T16:10:40.907Z,5.60
2023-02-24T16:13:18.260Z,7.43
2023-02-24T16:15:45.458Z,6.05
2023-02-24T16:18:22.390Z,5.65
2023-02-24T16:20:55.273Z,6.43
2023-02-24T16:23:24.546Z,6.13
2023-02-24T16:25:58.842Z,6.20
2023-02-24T16:28:26.686Z,7.18
2023-02-24T16:30:53.641Z,6.00
2023-02-24T16:33:23.410Z,6.78
2023-02-24T16:35:57.952Z,7.10
2023-02-24T16:38:26.742Z,7.07
2023-02-24T16:40:54.434Z,5.55
2023-02-24T16:43:20.981Z,6.30
2023-02-24T16:45:47.666Z,6.05
2023-02-24T16:48:23.986Z,6.18
2023-02-24T16:50:52.069Z,6.68
2023-02-24T16:53:22.930Z,6.60
2023-02-24T16:55:50.456Z,6.50
2023-02-24T16:58:17.564Z,7.93
2023-02-24T17:00:46.719Z,5.57
2023-02-24T17:03:18.061Z,5.85
2023-02-24T17:05:44.726Z,6.25
2023-02-24T17:08:11.546Z,6.20
2023-02-24T17:10:39.955Z,5.90
2023-02-24T17:13:07.160Z,5.93
2023-02-24T17:15:33.714Z,5.50
2023-02-24T17:18:01.338Z,6.75
2023-02-24T17:20:27.956Z,6.50
2023-02-24T17:22:54.549Z,5.57
2023-02-24T17:25:26.819Z,4.75
2023-02-24T17:27:54.652Z,5.15
2023-02-24T17:30:25.920Z,4.82
2023-02-24T17:32:52.492Z,5.05
2023-02-24T17:35:19.341Z,5.60
2023-02-24T17:37:45.857Z,5.88
2023-02-24T17:40:13.685Z,4.80
2023-02-24T17:42:40.845Z,5.80
2023-02-24T17:45:09.216Z,5.90
2023-02-24T17:47:35.865Z,5.05
2023-02-24T17:50:03.272Z,5.50
2023-02-24T17:52:31.764Z,5.75
2023-02-24T17:54:58.878Z,6.05
2023-02-24T17:57:27.174Z,7.07
2023-02-24T17:59:54.941Z,6.03
2023-02-24T18:02:22.046Z,5.95
2023-02-24T18:04:51.722Z,5.38
2023-02-24T18:07:19.191Z,5.20
2023-02-24T18:09:45.773Z,6.20
2023-02-24T18:12:12.511Z,5.75
2023-02-24T18:14:38.977Z,5.03
2023-02-24T18:17:05.531Z,5.63
2023-02-24T18:19:34.049Z,5.68
2023-02-24T18:22:00.564Z,4.70
2023-02-24T18:24:27.126Z,5.22
2023-02-24T18:26:53.950Z,5.30
2023-02-24T18:29:20.506Z,6.07
2023-02-24T18:31:48.138Z,5.47
2023-02-24T18:34:14.694Z,6.45
2023-02-24T18:36:42.463Z,5.60
2023-02-24T18:39:09.882Z,6.20
2023-02-24T18:41:36.820Z,5.47
2023-02-24T18:44:09.366Z,5.95
2023-02-24T18:46:45.176Z,5.38
2023-02-24T18:49:11.809Z,5.72
2023-02-24T18:51:38.778Z,5.40
2023-02-24T18:54:05.236Z,5.55
2023-02-24T18:56:34.132Z,5.80
2023-02-24T18:59:01.709Z,5.40
2023-02-24T19:01:31.541Z,5.70
2023-02-24T19:03:58.824Z,5.10
2023-02-24T19:06:27.497Z,4.75
2023-02-24T19:09:01.995Z,5.10
2023-02-24T19:11:29.704Z,5.13
2023-02-24T19:14:00.690Z,4.63
2023-02-24T19:16:31.903Z,5.65
2023-02-24T19:18:59.772Z,4.68
2023-02-24T19:21:30.233Z,6.20
2023-02-24T19:24:08.406Z,5.78
2023-02-24T19:26:35.212Z,5.90
2023-02-24T19:29:02.295Z,5.60
2023-02-24T19:31:30.329Z,6.13
2023-02-24T19:34:00.469Z,6.30
2023-02-24T19:36:28.087Z,5.88
2023-02-24T19:38:54.641Z,6.97
2023-02-24T19:41:21.323Z,6.50
2023-02-24T19:43:49.901Z,5.65
2023-02-24T19:46:20.745Z,5.95
2023-02-24T19:48:48.596Z,5.20
2023-02-24T19:51:17.719Z,5.70
2023-02-24T19:53:44.854Z,5.28
2023-02-24T19:56:11.791Z,6.45
2023-02-24T19:58:38.609Z,6.40
2023-02-24T20:01:13.585Z,7.40
2023-02-24T20:03:43.456Z,6.60
2023-02-24T20:06:22.188Z,5.90
2023-02-24T20:08:48.949Z,5.90
2023-02-24T20:11:15.745Z,5.57
2023-02-24T20:13:43.323Z,5.80
2023-02-24T20:16:12.369Z,5.78
2023-02-24T20:18:40.674Z,5.00
2023-02-24T20:21:10.992Z,6.00
2023-02-24T20:23:38.988Z,3.70
2023-02-24T20:26:06.630Z,5.03
2023-02-24T20:28:33.203Z,3.17
2023-02-24T20:31:07.259Z,2.97
2023-02-24T20:33:34.070Z,2.10
2023-02-24T20:36:01.228Z,1.95
2023-02-24T20:38:29.133Z,2.47
2023-02-24T20:41:00.432Z,3.63
2023-02-24T20:43:28.241Z,3.17
2023-02-24T20:45:54.943Z,1.80
2023-02-24T20:48:22.833Z,2.40
2023-02-24T20:50:49.561Z,2.08
2023-02-24T20:53:16.501Z,1.90
2023-02-24T20:55:43.166Z,1.50
2023-02-24T20:58:09.716Z,2.53
2023-02-24T21:00:38.574Z,1.65
2023-02-24T21:03:08.140Z,1.42
2023-02-24T21:05:35.717Z,1.52
2023-02-24T21:08:02.253Z,2.13
2023-02-24T21:10:29.770Z,1.33
2023-02-24T21:12:56.615Z,1.60
2023-02-24T21:15:23.135Z,1.10
2023-02-24T21:17:49.679Z,0.88
2023-02-24T21:20:16.169Z,0.98
2023-02-24T21:22:42.637Z,1.30
2023-02-24T21:25:12.772Z,0.90
2023-02-24T21:27:39.764Z,1.00
2023-02-24T21:30:07.699Z,0.93
2023-02-24T21:32:34.504Z,1.92
2023-02-24T21:35:02.183Z,1.10
2023-02-24T21:37:29.379Z,1.20
2023-02-24T21:39:55.997Z,0.95
2023-02-24T21:42:22.718Z,0.90
2023-02-24T21:44:53.176Z,1.15
2023-02-24T21:47:20.443Z,1.00
2023-02-24T21:49:46.902Z,0.93
2023-02-24T21:52:13.413Z,0.98
2023-02-24T21:54:40.329Z,0.90
2023-02-24T21:57:07.342Z,0.63
2023-02-24T21:59:34.300Z,0.70
2023-02-24T22:02:00.909Z,0.80
2023-02-24T22:04:28.147Z,0.75
2023-02-24T22:06:54.642Z,0.85
2023-02-24T22:09:21.301Z,0.80
2023-02-24T22:11:49.265Z,0.70
2023-02-24T22:14:16.026Z,0.82
2023-02-24T22:16:44.333Z,0.68
2023-02-24T22:19:11.784Z,0.80
2023-02-24T22:21:39.619Z,0.77
2023-02-24T22:24:06.586Z,0.75
2023-02-24T22:26:33.171Z,1.00
2023-02-24T22:29:03.611Z,0.70
2023-02-24T22:31:32.033Z,0.60
2023-02-24T22:33:59.051Z,0.70
2023-02-24T22:36:31.578Z,0.60
2023-02-24T22:39:00.352Z,0.70
2023-02-24T22:41:31.305Z,0.90
2023-02-24T22:43:58.782Z,0.90
2023-02-24T22:46:28.802Z,0.73
2023-02-24T22:48:56.822Z,0.65
2023-02-24T22:51:24.425Z,0.90
2023-02-24T22:53:51.974Z,1.20
2023-02-24T22:56:22.244Z,1.00
2023-02-24T22:58:49.001Z,1.15
2023-02-24T23:01:22.279Z,1.10
2023-02-24T23:03:48.897Z,1.20
2023-02-24T23:06:22.216Z,1.10
2023-02-24T23:08:50.701Z,1.23
2023-02-24T23:11:20.841Z,1.00
2023-02-24T23:13:49.708Z,1.30
2023-02-24T23:16:21.898Z,1.00
2023-02-24T23:18:50.765Z,0.93
2023-02-24T23:21:31.017Z,1.00
2023-02-24T23:23:57.499Z,0.90
2023-02-24T23:26:32.502Z,1.20
2023-02-24T23:28:59.547Z,1.20
2023-02-24T23:31:28.808Z,1.10
2023-02-24T23:33:55.500Z,1.48
2023-02-24T23:36:23.934Z,1.45
2023-02-24T23:38:51.818Z,1.30
2023-02-24T23:41:18.503Z,1.50
2023-02-24T23:43:45.123Z,1.67
2023-02-24T23:46:13.966Z,1.73
2023-02-24T23:48:40.808Z,2.40
2023-02-24T23:51:12.605Z,2.40
2023-02-24T23:53:44.860Z,1.75
2023-02-24T23:56:19.463Z,2.60
2023-02-24T23:58:53.157Z,2.20
